sensor_id;sensor_type;location;lat;lon;timestamp;P1;durP1;ratioP1;P2;durP2;ratioP2
9948;SDS011;5013;51.840;8.276;2024-03-06T00:01:42;92.67;;;54.90;;
9948;SDS011;5013;51.840;8.276;2024-03-06T00:04:07;83.43;;;51.90;;
9948;SDS011;5013;51.840;8.276;2024-03-06T00:06:33;85.43;;;53.53;;
9948;SDS011;5013;51.840;8.276;2024-03-06T00:08:59;88.27;;;54.77;;
9948;SDS011;5013;51.840;8.276;2024-03-06T00:11:25;94.63;;;55.80;;
9948;SDS011;5013;51.840;8.276;2024-03-06T00:13:50;84.57;;;53.70;;
9948;SDS011;5013;51.840;8.276;2024-03-06T00:16:16;90.10;;;55.30;;
9948;SDS011;5013;51.840;8.276;2024-03-06T00:18:42;85.10;;;53.90;;
9948;SDS011;5013;51.840;8.276;2024-03-06T00:21:07;92.07;;;56.27;;
9948;SDS011;5013;51.840;8.276;2024-03-06T00:23:34;86.60;;;54.93;;
9948;SDS011;5013;51.840;8.276;2024-03-06T00:26:00;90.87;;;54.80;;
9948;SDS011;5013;51.840;8.276;2024-03-06T00:28:27;88.87;;;53.50;;
9948;SDS011;5013;51.840;8.276;2024-03-06T00:30:53;86.50;;;54.67;;
9948;SDS011;5013;51.840;8.276;2024-03-06T00:33:18;81.97;;;53.47;;
9948;SDS011;5013;51.840;8.276;2024-03-06T00:35:44;86.37;;;53.93;;
9948;SDS011;5013;51.840;8.276;2024-03-06T00:38:09;88.80;;;54.83;;
9948;SDS011;5013;51.840;8.276;2024-03-06T00:40:35;81.77;;;53.97;;
9948;SDS011;5013;51.840;8.276;2024-03-06T00:43:00;92.23;;;54.93;;
9948;SDS011;5013;51.840;8.276;2024-03-06T00:45:26;109.70;;;60.00;;
9948;SDS011;5013;51.840;8.276;2024-03-06T00:47:51;111.70;;;61.90;;
9948;SDS011;5013;51.840;8.276;2024-03-06T00:50:17;111.07;;;62.63;;
9948;SDS011;5013;51.840;8.276;2024-03-06T00:52:43;121.77;;;66.37;;
9948;SDS011;5013;51.840;8.276;2024-03-06T00:55:09;105.57;;;61.30;;
9948;SDS011;5013;51.840;8.276;2024-03-06T00:57:35;93.33;;;59.20;;
9948;SDS011;5013;51.840;8.276;2024-03-06T01:00:01;120.17;;;66.30;;
9948;SDS011;5013;51.840;8.276;2024-03-06T01:02:31;107.37;;;61.67;;
9948;SDS011;5013;51.840;8.276;2024-03-06T01:04:56;105.10;;;61.33;;
9948;SDS011;5013;51.840;8.276;2024-03-06T01:07:22;95.83;;;58.13;;
9948;SDS011;5013;51.840;8.276;2024-03-06T01:09:47;97.17;;;57.43;;
9948;SDS011;5013;51.840;8.276;2024-03-06T01:12:13;112.40;;;60.60;;
9948;SDS011;5013;51.840;8.276;2024-03-06T01:14:39;84.43;;;52.57;;
9948;SDS011;5013;51.840;8.276;2024-03-06T01:17:04;86.87;;;54.13;;
9948;SDS011;5013;51.840;8.276;2024-03-06T01:19:31;87.77;;;53.23;;
9948;SDS011;5013;51.840;8.276;2024-03-06T01:21:56;104.07;;;59.87;;
9948;SDS011;5013;51.840;8.276;2024-03-06T01:24:22;88.17;;;53.80;;
9948;SDS011;5013;51.840;8.276;2024-03-06T01:26:47;107.67;;;59.53;;
9948;SDS011;5013;51.840;8.276;2024-03-06T01:29:13;88.13;;;55.77;;
9948;SDS011;5013;51.840;8.276;2024-03-06T01:31:38;100.03;;;57.07;;
9948;SDS011;5013;51.840;8.276;2024-03-06T01:34:04;91.20;;;56.57;;
9948;SDS011;5013;51.840;8.276;2024-03-06T01:36:29;92.30;;;56.67;;
9948;SDS011;5013;51.840;8.276;2024-03-06T01:38:55;90.63;;;54.63;;
9948;SDS011;5013;51.840;8.276;2024-03-06T01:41:21;99.30;;;58.83;;
9948;SDS011;5013;51.840;8.276;2024-03-06T01:43:46;93.87;;;54.67;;
9948;SDS011;5013;51.840;8.276;2024-03-06T01:46:12;94.90;;;54.70;;
9948;SDS011;5013;51.840;8.276;2024-03-06T01:48:38;92.40;;;56.87;;
9948;SDS011;5013;51.840;8.276;2024-03-06T01:51:04;93.87;;;54.73;;
9948;SDS011;5013;51.840;8.276;2024-03-06T01:53:30;96.70;;;57.77;;
9948;SDS011;5013;51.840;8.276;2024-03-06T01:55:57;102.50;;;57.70;;
9948;SDS011;5013;51.840;8.276;2024-03-06T01:58:23;102.23;;;58.80;;
9948;SDS011;5013;51.840;8.276;2024-03-06T02:00:49;104.57;;;59.27;;
9948;SDS011;5013;51.840;8.276;2024-03-06T02:03:16;90.13;;;53.70;;
9948;SDS011;5013;51.840;8.276;2024-03-06T02:05:42;98.40;;;57.47;;
9948;SDS011;5013;51.840;8.276;2024-03-06T02:08:08;98.60;;;58.17;;
9948;SDS011;5013;51.840;8.276;2024-03-06T02:10:34;93.17;;;55.73;;
9948;SDS011;5013;51.840;8.276;2024-03-06T02:12:59;103.17;;;59.27;;
9948;SDS011;5013;51.840;8.276;2024-03-06T02:15:25;88.07;;;53.87;;
9948;SDS011;5013;51.840;8.276;2024-03-06T02:17:51;93.87;;;56.23;;
9948;SDS011;5013;51.840;8.276;2024-03-06T02:20:24;87.97;;;54.23;;
9948;SDS011;5013;51.840;8.276;2024-03-06T02:22:50;97.80;;;56.60;;
9948;SDS011;5013;51.840;8.276;2024-03-06T02:25:16;84.63;;;54.03;;
9948;SDS011;5013;51.840;8.276;2024-03-06T02:27:42;91.50;;;54.60;;
9948;SDS011;5013;51.840;8.276;2024-03-06T02:30:08;89.00;;;54.77;;
9948;SDS011;5013;51.840;8.276;2024-03-06T02:32:35;88.57;;;54.47;;
9948;SDS011;5013;51.840;8.276;2024-03-06T02:35:01;89.90;;;54.40;;
9948;SDS011;5013;51.840;8.276;2024-03-06T02:37:28;92.17;;;55.50;;
9948;SDS011;5013;51.840;8.276;2024-03-06T02:39:54;89.83;;;52.30;;
9948;SDS011;5013;51.840;8.276;2024-03-06T02:42:19;89.07;;;54.03;;
9948;SDS011;5013;51.840;8.276;2024-03-06T02:44:45;93.23;;;55.37;;
9948;SDS011;5013;51.840;8.276;2024-03-06T02:47:11;91.00;;;53.80;;
9948;SDS011;5013;51.840;8.276;2024-03-06T02:49:36;93.33;;;54.73;;
9948;SDS011;5013;51.840;8.276;2024-03-06T02:52:02;90.20;;;54.17;;
9948;SDS011;5013;51.840;8.276;2024-03-06T02:54:28;99.60;;;55.10;;
9948;SDS011;5013;51.840;8.276;2024-03-06T02:56:54;93.30;;;56.30;;
9948;SDS011;5013;51.840;8.276;2024-03-06T02:59:19;97.80;;;56.47;;
9948;SDS011;5013;51.840;8.276;2024-03-06T03:01:45;111.27;;;60.27;;
9948;SDS011;5013;51.840;8.276;2024-03-06T03:04:10;95.30;;;58.87;;
9948;SDS011;5013;51.840;8.276;2024-03-06T03:06:36;97.60;;;58.07;;
9948;SDS011;5013;51.840;8.276;2024-03-06T03:09:02;95.17;;;55.13;;
9948;SDS011;5013;51.840;8.276;2024-03-06T03:11:28;83.47;;;50.03;;
9948;SDS011;5013;51.840;8.276;2024-03-06T03:13:55;90.00;;;55.07;;
9948;SDS011;5013;51.840;8.276;2024-03-06T03:16:20;100.83;;;55.73;;
9948;SDS011;5013;51.840;8.276;2024-03-06T03:18:46;91.03;;;53.03;;
9948;SDS011;5013;51.840;8.276;2024-03-06T03:21:15;85.90;;;51.33;;
9948;SDS011;5013;51.840;8.276;2024-03-06T03:23:41;81.97;;;50.73;;
9948;SDS011;5013;51.840;8.276;2024-03-06T03:26:07;78.30;;;52.13;;
9948;SDS011;5013;51.840;8.276;2024-03-06T03:28:37;80.70;;;49.80;;
9948;SDS011;5013;51.840;8.276;2024-03-06T03:31:04;85.30;;;52.47;;
9948;SDS011;5013;51.840;8.276;2024-03-06T03:33:30;91.77;;;52.70;;
9948;SDS011;5013;51.840;8.276;2024-03-06T03:35:56;86.93;;;52.87;;
9948;SDS011;5013;51.840;8.276;2024-03-06T03:38:21;85.90;;;51.93;;
9948;SDS011;5013;51.840;8.276;2024-03-06T03:40:47;101.23;;;56.00;;
9948;SDS011;5013;51.840;8.276;2024-03-06T03:43:13;98.03;;;57.77;;
9948;SDS011;5013;51.840;8.276;2024-03-06T03:45:38;89.93;;;55.00;;
9948;SDS011;5013;51.840;8.276;2024-03-06T03:48:04;100.40;;;57.37;;
9948;SDS011;5013;51.840;8.276;2024-03-06T03:50:30;100.10;;;58.23;;
9948;SDS011;5013;51.840;8.276;2024-03-06T03:52:57;107.87;;;58.07;;
9948;SDS011;5013;51.840;8.276;2024-03-06T03:55:26;100.77;;;56.80;;
9948;SDS011;5013;51.840;8.276;2024-03-06T03:57:52;92.20;;;55.80;;
9948;SDS011;5013;51.840;8.276;2024-03-06T04:00:18;87.67;;;52.07;;
9948;SDS011;5013;51.840;8.276;2024-03-06T04:02:44;103.97;;;58.20;;
9948;SDS011;5013;51.840;8.276;2024-03-06T04:05:10;87.77;;;53.10;;
9948;SDS011;5013;51.840;8.276;2024-03-06T04:07:35;82.50;;;52.13;;
9948;SDS011;5013;51.840;8.276;2024-03-06T04:10:02;94.37;;;55.93;;
9948;SDS011;5013;51.840;8.276;2024-03-06T04:12:28;85.77;;;54.13;;
9948;SDS011;5013;51.840;8.276;2024-03-06T04:14:54;86.07;;;52.37;;
9948;SDS011;5013;51.840;8.276;2024-03-06T04:17:19;92.73;;;53.07;;
9948;SDS011;5013;51.840;8.276;2024-03-06T04:19:45;90.70;;;55.27;;
9948;SDS011;5013;51.840;8.276;2024-03-06T04:22:13;80.80;;;52.20;;
9948;SDS011;5013;51.840;8.276;2024-03-06T04:24:40;89.00;;;53.10;;
9948;SDS011;5013;51.840;8.276;2024-03-06T04:27:07;101.33;;;58.53;;
9948;SDS011;5013;51.840;8.276;2024-03-06T04:29:33;94.83;;;53.77;;
9948;SDS011;5013;51.840;8.276;2024-03-06T04:31:58;87.77;;;52.17;;
9948;SDS011;5013;51.840;8.276;2024-03-06T04:34:24;84.03;;;50.93;;
9948;SDS011;5013;51.840;8.276;2024-03-06T04:36:49;91.30;;;52.37;;
9948;SDS011;5013;51.840;8.276;2024-03-06T04:39:15;83.20;;;51.97;;
9948;SDS011;5013;51.840;8.276;2024-03-06T04:41:40;93.27;;;53.93;;
9948;SDS011;5013;51.840;8.276;2024-03-06T04:44:06;86.10;;;51.53;;
9948;SDS011;5013;51.840;8.276;2024-03-06T04:46:31;90.43;;;53.80;;
9948;SDS011;5013;51.840;8.276;2024-03-06T04:48:57;92.97;;;54.47;;
9948;SDS011;5013;51.840;8.276;2024-03-06T04:51:22;90.57;;;53.90;;
9948;SDS011;5013;51.840;8.276;2024-03-06T04:53:49;103.27;;;55.53;;
9948;SDS011;5013;51.840;8.276;2024-03-06T04:56:14;85.63;;;52.37;;
9948;SDS011;5013;51.840;8.276;2024-03-06T04:58:43;96.80;;;56.20;;
9948;SDS011;5013;51.840;8.276;2024-03-06T05:01:09;90.47;;;53.50;;
9948;SDS011;5013;51.840;8.276;2024-03-06T05:03:36;105.50;;;57.00;;
9948;SDS011;5013;51.840;8.276;2024-03-06T05:06:03;93.67;;;55.77;;
9948;SDS011;5013;51.840;8.276;2024-03-06T05:08:30;100.83;;;54.77;;
9948;SDS011;5013;51.840;8.276;2024-03-06T05:10:55;101.97;;;57.00;;
9948;SDS011;5013;51.840;8.276;2024-03-06T05:13:21;89.80;;;53.40;;
9948;SDS011;5013;51.840;8.276;2024-03-06T05:15:47;96.80;;;57.63;;
9948;SDS011;5013;51.840;8.276;2024-03-06T05:18:13;101.73;;;57.67;;
9948;SDS011;5013;51.840;8.276;2024-03-06T05:20:38;90.00;;;57.17;;
9948;SDS011;5013;51.840;8.276;2024-03-06T05:23:04;110.57;;;60.10;;
9948;SDS011;5013;51.840;8.276;2024-03-06T05:25:29;120.00;;;61.80;;
9948;SDS011;5013;51.840;8.276;2024-03-06T05:27:55;126.60;;;63.80;;
9948;SDS011;5013;51.840;8.276;2024-03-06T05:30:20;117.87;;;62.20;;
9948;SDS011;5013;51.840;8.276;2024-03-06T05:32:46;111.03;;;63.27;;
9948;SDS011;5013;51.840;8.276;2024-03-06T05:35:12;106.40;;;60.20;;
9948;SDS011;5013;51.840;8.276;2024-03-06T05:37:38;110.97;;;61.27;;
9948;SDS011;5013;51.840;8.276;2024-03-06T05:40:04;97.80;;;57.53;;
9948;SDS011;5013;51.840;8.276;2024-03-06T05:42:30;102.03;;;58.50;;
9948;SDS011;5013;51.840;8.276;2024-03-06T05:44:56;105.30;;;61.53;;
9948;SDS011;5013;51.840;8.276;2024-03-06T05:47:25;106.27;;;61.30;;
9948;SDS011;5013;51.840;8.276;2024-03-06T05:49:51;99.50;;;58.27;;
9948;SDS011;5013;51.840;8.276;2024-03-06T05:52:17;99.37;;;60.00;;
9948;SDS011;5013;51.840;8.276;2024-03-06T05:54:43;91.83;;;56.37;;
9948;SDS011;5013;51.840;8.276;2024-03-06T05:57:08;88.33;;;55.67;;
9948;SDS011;5013;51.840;8.276;2024-03-06T05:59:34;111.40;;;60.90;;
9948;SDS011;5013;51.840;8.276;2024-03-06T06:02:00;97.63;;;58.00;;
9948;SDS011;5013;51.840;8.276;2024-03-06T06:04:25;101.57;;;57.27;;
9948;SDS011;5013;51.840;8.276;2024-03-06T06:06:51;94.60;;;57.63;;
9948;SDS011;5013;51.840;8.276;2024-03-06T06:09:17;103.13;;;59.43;;
9948;SDS011;5013;51.840;8.276;2024-03-06T06:11:43;112.73;;;61.53;;
9948;SDS011;5013;51.840;8.276;2024-03-06T06:14:09;104.63;;;61.27;;
9948;SDS011;5013;51.840;8.276;2024-03-06T06:16:38;112.47;;;63.27;;
9948;SDS011;5013;51.840;8.276;2024-03-06T06:19:05;119.97;;;64.43;;
9948;SDS011;5013;51.840;8.276;2024-03-06T06:21:31;108.77;;;63.33;;
9948;SDS011;5013;51.840;8.276;2024-03-06T06:23:57;105.40;;;60.87;;
9948;SDS011;5013;51.840;8.276;2024-03-06T06:26:23;105.27;;;60.53;;
9948;SDS011;5013;51.840;8.276;2024-03-06T06:28:49;105.30;;;59.70;;
9948;SDS011;5013;51.840;8.276;2024-03-06T06:31:15;107.53;;;61.20;;
9948;SDS011;5013;51.840;8.276;2024-03-06T06:33:40;108.10;;;59.23;;
9948;SDS011;5013;51.840;8.276;2024-03-06T06:36:06;103.13;;;58.20;;
9948;SDS011;5013;51.840;8.276;2024-03-06T06:38:32;106.50;;;59.73;;
9948;SDS011;5013;51.840;8.276;2024-03-06T06:40:57;91.23;;;55.73;;
9948;SDS011;5013;51.840;8.276;2024-03-06T06:43:23;101.77;;;59.37;;
9948;SDS011;5013;51.840;8.276;2024-03-06T06:45:49;97.53;;;56.57;;
9948;SDS011;5013;51.840;8.276;2024-03-06T06:48:15;88.13;;;55.87;;
9948;SDS011;5013;51.840;8.276;2024-03-06T06:50:41;112.83;;;62.70;;
9948;SDS011;5013;51.840;8.276;2024-03-06T06:53:07;102.57;;;59.83;;
9948;SDS011;5013;51.840;8.276;2024-03-06T06:55:32;100.33;;;57.57;;
9948;SDS011;5013;51.840;8.276;2024-03-06T06:57:58;96.07;;;57.00;;
9948;SDS011;5013;51.840;8.276;2024-03-06T07:00:23;103.57;;;58.83;;
9948;SDS011;5013;51.840;8.276;2024-03-06T07:02:50;112.43;;;62.07;;
9948;SDS011;5013;51.840;8.276;2024-03-06T07:05:16;117.63;;;65.93;;
9948;SDS011;5013;51.840;8.276;2024-03-06T07:07:41;129.60;;;67.57;;
9948;SDS011;5013;51.840;8.276;2024-03-06T07:10:07;119.70;;;65.20;;
9948;SDS011;5013;51.840;8.276;2024-03-06T07:12:33;109.80;;;62.63;;
9948;SDS011;5013;51.840;8.276;2024-03-06T07:15:00;104.77;;;62.23;;
9948;SDS011;5013;51.840;8.276;2024-03-06T07:17:25;100.40;;;58.77;;
9948;SDS011;5013;51.840;8.276;2024-03-06T07:19:51;105.93;;;60.27;;
9948;SDS011;5013;51.840;8.276;2024-03-06T07:22:17;95.83;;;56.20;;
9948;SDS011;5013;51.840;8.276;2024-03-06T07:24:44;89.03;;;54.67;;
9948;SDS011;5013;51.840;8.276;2024-03-06T07:27:09;94.63;;;53.47;;
9948;SDS011;5013;51.840;8.276;2024-03-06T07:29:35;86.23;;;53.77;;
9948;SDS011;5013;51.840;8.276;2024-03-06T07:32:01;101.00;;;59.27;;
9948;SDS011;5013;51.840;8.276;2024-03-06T07:34:27;88.10;;;56.10;;
9948;SDS011;5013;51.840;8.276;2024-03-06T07:36:53;103.43;;;58.53;;
9948;SDS011;5013;51.840;8.276;2024-03-06T07:39:19;82.10;;;52.73;;
9948;SDS011;5013;51.840;8.276;2024-03-06T07:41:45;91.13;;;56.20;;
9948;SDS011;5013;51.840;8.276;2024-03-06T07:44:11;83.87;;;53.33;;
9948;SDS011;5013;51.840;8.276;2024-03-06T07:46:37;87.63;;;53.43;;
9948;SDS011;5013;51.840;8.276;2024-03-06T07:49:03;88.17;;;55.30;;
9948;SDS011;5013;51.840;8.276;2024-03-06T07:51:30;89.33;;;53.97;;
9948;SDS011;5013;51.840;8.276;2024-03-06T07:53:58;88.03;;;53.47;;
9948;SDS011;5013;51.840;8.276;2024-03-06T07:56:25;92.43;;;55.53;;
9948;SDS011;5013;51.840;8.276;2024-03-06T07:58:51;101.70;;;58.27;;
9948;SDS011;5013;51.840;8.276;2024-03-06T08:01:18;97.03;;;55.97;;
9948;SDS011;5013;51.840;8.276;2024-03-06T08:03:45;91.17;;;54.20;;
9948;SDS011;5013;51.840;8.276;2024-03-06T08:06:11;105.70;;;60.50;;
9948;SDS011;5013;51.840;8.276;2024-03-06T08:08:42;88.93;;;54.27;;
9948;SDS011;5013;51.840;8.276;2024-03-06T08:11:09;94.57;;;57.93;;
9948;SDS011;5013;51.840;8.276;2024-03-06T08:13:36;100.47;;;60.03;;
9948;SDS011;5013;51.840;8.276;2024-03-06T08:16:02;95.33;;;60.77;;
9948;SDS011;5013;51.840;8.276;2024-03-06T08:18:29;79.77;;;53.00;;
9948;SDS011;5013;51.840;8.276;2024-03-06T08:20:54;98.37;;;59.43;;
9948;SDS011;5013;51.840;8.276;2024-03-06T08:23:20;88.97;;;57.97;;
9948;SDS011;5013;51.840;8.276;2024-03-06T08:25:46;88.97;;;56.13;;
9948;SDS011;5013;51.840;8.276;2024-03-06T08:28:11;85.57;;;54.07;;
9948;SDS011;5013;51.840;8.276;2024-03-06T08:30:37;78.23;;;51.33;;
9948;SDS011;5013;51.840;8.276;2024-03-06T08:33:02;87.97;;;53.43;;
9948;SDS011;5013;51.840;8.276;2024-03-06T08:35:29;74.63;;;51.17;;
9948;SDS011;5013;51.840;8.276;2024-03-06T08:37:55;75.27;;;52.23;;
9948;SDS011;5013;51.840;8.276;2024-03-06T08:40:20;76.87;;;51.47;;
9948;SDS011;5013;51.840;8.276;2024-03-06T08:42:46;77.23;;;49.73;;
9948;SDS011;5013;51.840;8.276;2024-03-06T08:45:13;68.07;;;46.40;;
9948;SDS011;5013;51.840;8.276;2024-03-06T08:47:40;67.43;;;48.30;;
9948;SDS011;5013;51.840;8.276;2024-03-06T08:50:06;74.10;;;47.63;;
9948;SDS011;5013;51.840;8.276;2024-03-06T08:52:32;69.07;;;46.43;;
9948;SDS011;5013;51.840;8.276;2024-03-06T08:54:59;68.87;;;48.03;;
9948;SDS011;5013;51.840;8.276;2024-03-06T08:57:25;79.77;;;51.47;;
9948;SDS011;5013;51.840;8.276;2024-03-06T08:59:53;73.63;;;48.40;;
9948;SDS011;5013;51.840;8.276;2024-03-06T09:02:19;86.33;;;53.23;;
9948;SDS011;5013;51.840;8.276;2024-03-06T09:04:45;80.33;;;50.50;;
9948;SDS011;5013;51.840;8.276;2024-03-06T09:07:12;79.30;;;51.37;;
9948;SDS011;5013;51.840;8.276;2024-03-06T09:09:38;74.93;;;49.27;;
9948;SDS011;5013;51.840;8.276;2024-03-06T09:12:07;67.23;;;45.10;;
9948;SDS011;5013;51.840;8.276;2024-03-06T09:14:37;60.37;;;43.13;;
9948;SDS011;5013;51.840;8.276;2024-03-06T09:17:04;63.97;;;45.27;;
9948;SDS011;5013;51.840;8.276;2024-03-06T09:19:30;61.03;;;42.77;;
9948;SDS011;5013;51.840;8.276;2024-03-06T09:21:57;57.67;;;40.37;;
9948;SDS011;5013;51.840;8.276;2024-03-06T09:24:23;58.97;;;39.13;;
9948;SDS011;5013;51.840;8.276;2024-03-06T09:26:53;57.53;;;41.63;;
9948;SDS011;5013;51.840;8.276;2024-03-06T09:29:19;56.37;;;40.63;;
9948;SDS011;5013;51.840;8.276;2024-03-06T09:31:45;65.57;;;41.10;;
9948;SDS011;5013;51.840;8.276;2024-03-06T09:34:11;52.67;;;39.43;;
9948;SDS011;5013;51.840;8.276;2024-03-06T09:36:40;52.10;;;38.27;;
9948;SDS011;5013;51.840;8.276;2024-03-06T09:39:11;51.33;;;39.60;;
9948;SDS011;5013;51.840;8.276;2024-03-06T09:41:37;51.50;;;38.00;;
9948;SDS011;5013;51.840;8.276;2024-03-06T09:44:06;54.43;;;37.23;;
9948;SDS011;5013;51.840;8.276;2024-03-06T09:46:32;51.30;;;36.43;;
9948;SDS011;5013;51.840;8.276;2024-03-06T09:48:59;46.43;;;34.67;;
9948;SDS011;5013;51.840;8.276;2024-03-06T09:51:26;49.07;;;35.10;;
9948;SDS011;5013;51.840;8.276;2024-03-06T09:53:52;50.30;;;36.97;;
9948;SDS011;5013;51.840;8.276;2024-03-06T09:56:18;50.27;;;36.47;;
9948;SDS011;5013;51.840;8.276;2024-03-06T09:58:45;50.07;;;35.03;;
9948;SDS011;5013;51.840;8.276;2024-03-06T10:01:12;52.40;;;36.23;;
9948;SDS011;5013;51.840;8.276;2024-03-06T10:03:39;47.33;;;35.57;;
9948;SDS011;5013;51.840;8.276;2024-03-06T10:06:07;46.83;;;35.30;;
9948;SDS011;5013;51.840;8.276;2024-03-06T10:08:33;47.70;;;34.60;;
9948;SDS011;5013;51.840;8.276;2024-03-06T10:10:59;47.47;;;34.23;;
9948;SDS011;5013;51.840;8.276;2024-03-06T10:13:25;42.23;;;31.37;;
9948;SDS011;5013;51.840;8.276;2024-03-06T10:16:01;39.90;;;31.37;;
9948;SDS011;5013;51.840;8.276;2024-03-06T10:18:28;37.23;;;29.07;;
9948;SDS011;5013;51.840;8.276;2024-03-06T10:20:55;32.77;;;25.80;;
9948;SDS011;5013;51.840;8.276;2024-03-06T10:23:21;35.40;;;27.47;;
9948;SDS011;5013;51.840;8.276;2024-03-06T10:25:47;34.10;;;27.00;;
9948;SDS011;5013;51.840;8.276;2024-03-06T10:28:16;32.50;;;26.13;;
9948;SDS011;5013;51.840;8.276;2024-03-06T10:30:43;32.60;;;25.67;;
9948;SDS011;5013;51.840;8.276;2024-03-06T10:33:09;34.20;;;26.83;;
9948;SDS011;5013;51.840;8.276;2024-03-06T10:35:37;33.73;;;26.97;;
9948;SDS011;5013;51.840;8.276;2024-03-06T10:38:03;34.40;;;25.80;;
9948;SDS011;5013;51.840;8.276;2024-03-06T10:40:34;35.17;;;25.97;;
9948;SDS011;5013;51.840;8.276;2024-03-06T10:43:01;37.27;;;27.53;;
9948;SDS011;5013;51.840;8.276;2024-03-06T10:45:50;39.53;;;28.30;;
9948;SDS011;5013;51.840;8.276;2024-03-06T10:48:14;37.90;;;28.20;;
9948;SDS011;5013;51.840;8.276;2024-03-06T10:50:41;39.40;;;29.53;;
9948;SDS011;5013;51.840;8.276;2024-03-06T10:53:09;36.97;;;28.33;;
9948;SDS011;5013;51.840;8.276;2024-03-06T10:55:37;34.40;;;25.93;;
9948;SDS011;5013;51.840;8.276;2024-03-06T10:58:05;40.80;;;29.83;;
9948;SDS011;5013;51.840;8.276;2024-03-06T11:00:44;39.90;;;27.37;;
9948;SDS011;5013;51.840;8.276;2024-03-06T11:03:14;31.90;;;25.70;;
9948;SDS011;5013;51.840;8.276;2024-03-06T11:05:41;33.80;;;27.33;;
9948;SDS011;5013;51.840;8.276;2024-03-06T11:08:09;36.47;;;27.57;;
9948;SDS011;5013;51.840;8.276;2024-03-06T11:10:36;32.07;;;25.37;;
9948;SDS011;5013;51.840;8.276;2024-03-06T11:13:10;35.00;;;26.43;;
9948;SDS011;5013;51.840;8.276;2024-03-06T11:15:48;32.97;;;25.50;;
9948;SDS011;5013;51.840;8.276;2024-03-06T11:23:27;35.43;;;26.50;;
9948;SDS011;5013;51.840;8.276;2024-03-06T11:28:22;37.13;;;28.93;;
9948;SDS011;5013;51.840;8.276;2024-03-06T11:30:59;36.40;;;28.07;;
9948;SDS011;5013;51.840;8.276;2024-03-06T11:33:39;36.87;;;27.43;;
9948;SDS011;5013;51.840;8.276;2024-03-06T11:36:13;37.33;;;28.20;;
9948;SDS011;5013;51.840;8.276;2024-03-06T11:38:41;33.67;;;26.03;;
9948;SDS011;5013;51.840;8.276;2024-03-06T11:41:07;35.27;;;27.30;;
9948;SDS011;5013;51.840;8.276;2024-03-06T11:43:41;39.57;;;27.97;;
9948;SDS011;5013;51.840;8.276;2024-03-06T11:46:11;34.47;;;26.20;;
9948;SDS011;5013;51.840;8.276;2024-03-06T11:48:37;36.40;;;27.10;;
9948;SDS011;5013;51.840;8.276;2024-03-06T11:51:03;28.40;;;24.07;;
9948;SDS011;5013;51.840;8.276;2024-03-06T11:53:30;37.50;;;27.47;;
9948;SDS011;5013;51.840;8.276;2024-03-06T11:55:55;34.73;;;28.00;;
9948;SDS011;5013;51.840;8.276;2024-03-06T11:58:21;34.37;;;27.00;;
9948;SDS011;5013;51.840;8.276;2024-03-06T12:00:50;33.33;;;25.17;;
9948;SDS011;5013;51.840;8.276;2024-03-06T12:03:18;26.37;;;20.73;;
9948;SDS011;5013;51.840;8.276;2024-03-06T12:05:44;25.90;;;20.67;;
9948;SDS011;5013;51.840;8.276;2024-03-06T12:08:10;26.77;;;21.40;;
9948;SDS011;5013;51.840;8.276;2024-03-06T12:10:36;28.37;;;21.93;;
9948;SDS011;5013;51.840;8.276;2024-03-06T12:13:04;29.97;;;22.80;;
9948;SDS011;5013;51.840;8.276;2024-03-06T12:15:30;27.73;;;21.20;;
9948;SDS011;5013;51.840;8.276;2024-03-06T12:17:55;29.67;;;22.50;;
9948;SDS011;5013;51.840;8.276;2024-03-06T12:20:21;30.33;;;23.10;;
9948;SDS011;5013;51.840;8.276;2024-03-06T12:27:49;28.47;;;22.87;;
9948;SDS011;5013;51.840;8.276;2024-03-06T12:30:18;29.07;;;23.23;;
9948;SDS011;5013;51.840;8.276;2024-03-06T12:33:06;31.33;;;23.23;;
9948;SDS011;5013;51.840;8.276;2024-03-06T12:35:31;29.80;;;22.27;;
9948;SDS011;5013;51.840;8.276;2024-03-06T12:37:57;28.47;;;23.07;;
9948;SDS011;5013;51.840;8.276;2024-03-06T12:40:23;30.47;;;22.60;;
9948;SDS011;5013;51.840;8.276;2024-03-06T12:42:49;29.17;;;23.00;;
9948;SDS011;5013;51.840;8.276;2024-03-06T12:45:17;29.10;;;22.57;;
9948;SDS011;5013;51.840;8.276;2024-03-06T12:47:43;32.63;;;24.57;;
9948;SDS011;5013;51.840;8.276;2024-03-06T12:50:13;29.73;;;23.13;;
9948;SDS011;5013;51.840;8.276;2024-03-06T12:52:39;29.53;;;22.27;;
9948;SDS011;5013;51.840;8.276;2024-03-06T12:55:05;28.83;;;23.20;;
9948;SDS011;5013;51.840;8.276;2024-03-06T12:57:32;29.13;;;23.83;;
9948;SDS011;5013;51.840;8.276;2024-03-06T12:59:58;28.13;;;23.67;;
9948;SDS011;5013;51.840;8.276;2024-03-06T13:02:24;30.53;;;25.37;;
9948;SDS011;5013;51.840;8.276;2024-03-06T13:04:50;27.03;;;24.13;;
9948;SDS011;5013;51.840;8.276;2024-03-06T13:07:16;30.80;;;25.27;;
9948;SDS011;5013;51.840;8.276;2024-03-06T13:09:42;32.20;;;25.87;;
9948;SDS011;5013;51.840;8.276;2024-03-06T13:12:07;31.60;;;25.80;;
9948;SDS011;5013;51.840;8.276;2024-03-06T13:14:33;30.60;;;26.23;;
9948;SDS011;5013;51.840;8.276;2024-03-06T13:16:59;32.77;;;25.43;;
9948;SDS011;5013;51.840;8.276;2024-03-06T13:19:25;33.93;;;25.70;;
9948;SDS011;5013;51.840;8.276;2024-03-06T13:21:50;31.87;;;25.07;;
9948;SDS011;5013;51.840;8.276;2024-03-06T13:24:17;33.37;;;25.20;;
9948;SDS011;5013;51.840;8.276;2024-03-06T13:26:44;36.07;;;25.90;;
9948;SDS011;5013;51.840;8.276;2024-03-06T13:29:10;36.70;;;25.67;;
9948;SDS011;5013;51.840;8.276;2024-03-06T13:31:36;37.93;;;26.27;;
9948;SDS011;5013;51.840;8.276;2024-03-06T13:34:03;35.40;;;25.67;;
9948;SDS011;5013;51.840;8.276;2024-03-06T13:36:28;35.90;;;27.03;;
9948;SDS011;5013;51.840;8.276;2024-03-06T13:38:54;34.80;;;26.30;;
9948;SDS011;5013;51.840;8.276;2024-03-06T13:41:21;35.27;;;26.73;;
9948;SDS011;5013;51.840;8.276;2024-03-06T13:43:46;36.90;;;28.37;;
9948;SDS011;5013;51.840;8.276;2024-03-06T13:46:12;42.67;;;30.03;;
9948;SDS011;5013;51.840;8.276;2024-03-06T13:48:38;42.57;;;31.10;;
9948;SDS011;5013;51.840;8.276;2024-03-06T13:51:04;40.70;;;30.20;;
9948;SDS011;5013;51.840;8.276;2024-03-06T13:53:30;47.13;;;32.70;;
9948;SDS011;5013;51.840;8.276;2024-03-06T13:55:56;45.53;;;32.87;;
9948;SDS011;5013;51.840;8.276;2024-03-06T13:58:22;43.47;;;32.60;;
9948;SDS011;5013;51.840;8.276;2024-03-06T14:00:47;44.33;;;32.70;;
9948;SDS011;5013;51.840;8.276;2024-03-06T14:03:13;43.17;;;33.23;;
9948;SDS011;5013;51.840;8.276;2024-03-06T14:05:39;50.23;;;34.40;;
9948;SDS011;5013;51.840;8.276;2024-03-06T14:08:04;44.60;;;33.80;;
9948;SDS011;5013;51.840;8.276;2024-03-06T14:10:30;44.73;;;31.27;;
9948;SDS011;5013;51.840;8.276;2024-03-06T14:12:59;46.67;;;33.43;;
9948;SDS011;5013;51.840;8.276;2024-03-06T14:15:25;45.73;;;33.90;;
9948;SDS011;5013;51.840;8.276;2024-03-06T14:17:51;42.67;;;32.67;;
9948;SDS011;5013;51.840;8.276;2024-03-06T14:20:19;45.53;;;33.53;;
9948;SDS011;5013;51.840;8.276;2024-03-06T14:22:45;47.70;;;33.97;;
9948;SDS011;5013;51.840;8.276;2024-03-06T14:25:11;42.67;;;31.67;;
9948;SDS011;5013;51.840;8.276;2024-03-06T14:27:37;48.57;;;35.53;;
9948;SDS011;5013;51.840;8.276;2024-03-06T14:30:03;51.57;;;33.27;;
9948;SDS011;5013;51.840;8.276;2024-03-06T14:32:31;47.23;;;32.37;;
9948;SDS011;5013;51.840;8.276;2024-03-06T14:34:57;48.53;;;34.50;;
9948;SDS011;5013;51.840;8.276;2024-03-06T14:37:23;49.63;;;33.43;;
9948;SDS011;5013;51.840;8.276;2024-03-06T14:39:48;50.57;;;35.07;;
9948;SDS011;5013;51.840;8.276;2024-03-06T14:42:16;51.03;;;35.80;;
9948;SDS011;5013;51.840;8.276;2024-03-06T14:44:42;47.97;;;36.63;;
9948;SDS011;5013;51.840;8.276;2024-03-06T14:47:11;51.33;;;37.03;;
9948;SDS011;5013;51.840;8.276;2024-03-06T14:49:37;51.40;;;37.27;;
9948;SDS011;5013;51.840;8.276;2024-03-06T14:52:03;49.60;;;36.07;;
9948;SDS011;5013;51.840;8.276;2024-03-06T14:54:28;51.10;;;35.50;;